sensor_id;sensor_type;location;lat;lon;timestamp;temperature;humidity
45313;SHT31;68267;51.540;5.854;2023-02-28T00:10:45;-1.9;81.9
45313;SHT31;68267;51.540;5.854;2023-02-28T00:24:04;-2.1;81.4
45313;SHT31;68267;51.540;5.854;2023-02-28T00:37:24;-2.1;82.2
45313;SHT31;68267;51.540;5.854;2023-02-28T00:50:44;-2.0;82.4
45313;SHT31;68267;51.540;5.854;2023-02-28T01:04:03;-2.1;82.4
45313;SHT31;68267;51.540;5.854;2023-02-28T01:17:23;-2.3;82.0
45313;SHT31;68267;51.540;5.854;2023-02-28T01:30:43;-2.3;82.4
45313;SHT31;68267;51.540;5.854;2023-02-28T01:44:02;-2.3;82.5
45313;SHT31;68267;51.540;5.854;2023-02-28T01:57:22;-2.3;82.7
45313;SHT31;68267;51.540;5.854;2023-02-28T02:10:42;-2.3;82.6
45313;SHT31;68267;51.540;5.854;2023-02-28T02:24:01;-2.4;82.3
45313;SHT31;68267;51.540;5.854;2023-02-28T02:37:21;-2.3;83.3
45313;SHT31;68267;51.540;5.854;2023-02-28T02:50:41;-2.5;83.2
45313;SHT31;68267;51.540;5.854;2023-02-28T03:04:00;-2.4;83.4
45313;SHT31;68267;51.540;5.854;2023-02-28T03:17:20;-2.4;83.3
45313;SHT31;68267;51.540;5.854;2023-02-28T03:30:40;-2.2;83.6
45313;SHT31;68267;51.540;5.854;2023-02-28T03:43:59;-1.7;84.1
45313;SHT31;68267;51.540;5.854;2023-02-28T03:57:19;-1.2;84.5
45313;SHT31;68267;51.540;5.854;2023-02-28T04:10:38;-0.9;84.4
45313;SHT31;68267;51.540;5.854;2023-02-28T04:23:58;-0.6;83.9
45313;SHT31;68267;51.540;5.854;2023-02-28T04:37:18;-0.4;83.7
45313;SHT31;68267;51.540;5.854;2023-02-28T04:50:37;-0.3;83.1
45313;SHT31;68267;51.540;5.854;2023-02-28T05:03:57;-0.2;82.6
45313;SHT31;68267;51.540;5.854;2023-02-28T05:17:16;-0.2;82.4
45313;SHT31;68267;51.540;5.854;2023-02-28T05:30:36;-0.1;82.3
45313;SHT31;68267;51.540;5.854;2023-02-28T05:43:56;-0.2;81.9
45313;SHT31;68267;51.540;5.854;2023-02-28T05:57:15;-0.3;81.8
45313;SHT31;68267;51.540;5.854;2023-02-28T06:10:35;-0.3;81.1
45313;SHT31;68267;51.540;5.854;2023-02-28T06:23:54;-0.6;81.1
45313;SHT31;68267;51.540;5.854;2023-02-28T06:37:14;-0.9;80.9
45313;SHT31;68267;51.540;5.854;2023-02-28T06:50:34;-1.1;80.9
45313;SHT31;68267;51.540;5.854;2023-02-28T07:03:53;0.3;81.5
45313;SHT31;68267;51.540;5.854;2023-02-28T07:17:13;2.0;75.8
45313;SHT31;68267;51.540;5.854;2023-02-28T07:30:33;3.5;69.4
45313;SHT31;68267;51.540;5.854;2023-02-28T07:43:52;3.6;66.1
45313;SHT31;68267;51.540;5.854;2023-02-28T07:57:12;3.7;66.6
45313;SHT31;68267;51.540;5.854;2023-02-28T08:10:31;3.7;65.1
45313;SHT31;68267;51.540;5.854;2023-02-28T08:23:51;3.9;62.5
45313;SHT31;68267;51.540;5.854;2023-02-28T08:37:11;3.9;55.9
45313;SHT31;68267;51.540;5.854;2023-02-28T08:50:30;4.0;56.5
45313;SHT31;68267;51.540;5.854;2023-02-28T09:03:50;5.4;50.4
45313;SHT31;68267;51.540;5.854;2023-02-28T09:17:10;5.2;46.9
45313;SHT31;68267;51.540;5.854;2023-02-28T09:30:29;4.7;45.8
45313;SHT31;68267;51.540;5.854;2023-02-28T09:43:49;5.8;43.8
45313;SHT31;68267;51.540;5.854;2023-02-28T09:57:08;5.8;41.9
45313;SHT31;68267;51.540;5.854;2023-02-28T10:10:28;4.7;41.6
45313;SHT31;68267;51.540;5.854;2023-02-28T10:23:48;5.4;43.8
45313;SHT31;68267;51.540;5.854;2023-02-28T10:37:07;6.2;43.0
45313;SHT31;68267;51.540;5.854;2023-02-28T10:50:27;6.2;42.9
45313;SHT31;68267;51.540;5.854;2023-02-28T11:03:46;6.4;43.2
45313;SHT31;68267;51.540;5.854;2023-02-28T11:17:06;5.4;45.6
45313;SHT31;68267;51.540;5.854;2023-02-28T11:30:26;5.1;45.6
45313;SHT31;68267;51.540;5.854;2023-02-28T11:43:45;5.9;45.6
45313;SHT31;68267;51.540;5.854;2023-02-28T11:57:05;5.4;45.7
45313;SHT31;68267;51.540;5.854;2023-02-28T12:10:24;6.4;43.7
45313;SHT31;68267;51.540;5.854;2023-02-28T12:23:44;6.8;43.7
45313;SHT31;68267;51.540;5.854;2023-02-28T12:37:04;7.0;42.3
45313;SHT31;68267;51.540;5.854;2023-02-28T12:50:23;6.9;38.4
45313;SHT31;68267;51.540;5.854;2023-02-28T13:03:43;6.3;40.9
45313;SHT31;68267;51.540;5.854;2023-02-28T13:17:03;6.2;41.4
45313;SHT31;68267;51.540;5.854;2023-02-28T13:30:22;6.6;40.6
45313;SHT31;68267;51.540;5.854;2023-02-28T13:43:42;6.4;42.5
45313;SHT31;68267;51.540;5.854;2023-02-28T13:57:01;6.5;45.6
45313;SHT31;68267;51.540;5.854;2023-02-28T14:10:21;6.1;43.3
45313;SHT31;68267;51.540;5.854;2023-02-28T14:23:41;6.4;42.9
45313;SHT31;68267;51.540;5.854;2023-02-28T14:37:00;6.6;42.0
45313;SHT31;68267;51.540;5.854;2023-02-28T14:50:20;7.6;40.8
45313;SHT31;68267;51.540;5.854;2023-02-28T15:03:40;7.7;42.2
45313;SHT31;68267;51.540;5.854;2023-02-28T15:16:59;6.9;42.1
45313;SHT31;68267;51.540;5.854;2023-02-28T15:30:19;7.1;45.4
45313;SHT31;68267;51.540;5.854;2023-02-28T15:43:39;6.6;44.3
45313;SHT31;68267;51.540;5.854;2023-02-28T15:56:58;6.6;44.9
45313;SHT31;68267;51.540;5.854;2023-02-28T16:10:18;6.4;44.9
45313;SHT31;68267;51.540;5.854;2023-02-28T16:23:37;6.2;47.3
45313;SHT31;68267;51.540;5.854;2023-02-28T16:36:57;5.8;48.0
45313;SHT31;68267;51.540;5.854;2023-02-28T16:50:17;5.6;49.4
45313;SHT31;68267;51.540;5.854;2023-02-28T17:03:36;5.2;51.0
45313;SHT31;68267;51.540;5.854;2023-02-28T17:16:56;4.6;53.1
45313;SHT31;68267;51.540;5.854;2023-02-28T17:30:16;3.9;55.3
45313;SHT31;68267;51.540;5.854;2023-02-28T17:43:35;3.2;56.8
45313;SHT31;68267;51.540;5.854;2023-02-28T17:56:55;2.5;59.1
45313;SHT31;68267;51.540;5.854;2023-02-28T18:10:15;1.9;60.8
45313;SHT31;68267;51.540;5.854;2023-02-28T18:23:34;1.3;61.2
45313;SHT31;68267;51.540;5.854;2023-02-28T18:36:54;1.0;63.2
45313;SHT31;68267;51.540;5.854;2023-02-28T18:50:13;0.6;63.5
45313;SHT31;68267;51.540;5.854;2023-02-28T19:03:33;0.3;66.3
45313;SHT31;68267;51.540;5.854;2023-02-28T19:16:53;0.3;67.6
45313;SHT31;68267;51.540;5.854;2023-02-28T19:30:12;0.2;67.7
45313;SHT31;68267;51.540;5.854;2023-02-28T19:56:51;-0.3;67.8
45313;SHT31;68267;51.540;5.854;2023-02-28T20:10:11;-0.7;68.4
45313;SHT31;68267;51.540;5.854;2023-02-28T20:23:31;-0.7;71.5
45313;SHT31;68267;51.540;5.854;2023-02-28T20:36:50;-0.8;71.5
45313;SHT31;68267;51.540;5.854;2023-02-28T20:50:10;-0.8;72.1
45313;SHT31;68267;51.540;5.854;2023-02-28T21:03:30;-1.1;71.7
45313;SHT31;68267;51.540;5.854;2023-02-28T21:16:49;-1.3;71.9
45313;SHT31;68267;51.540;5.854;2023-02-28T21:30:09;-1.5;72.4
45313;SHT31;68267;51.540;5.854;2023-02-28T21:43:28;-1.5;74.0
45313;SHT31;68267;51.540;5.854;2023-02-28T21:56:48;-1.6;75.0
45313;SHT31;68267;51.540;5.854;2023-02-28T22:10:08;-1.8;74.8
45313;SHT31;68267;51.540;5.854;2023-02-28T22:23:27;-1.9;75.0
45313;SHT31;68267;51.540;5.854;2023-02-28T22:36:47;-2.0;75.6
45313;SHT31;68267;51.540;5.854;2023-02-28T22:50:06;-2.0;76.3
45313;SHT31;68267;51.540;5.854;2023-02-28T23:03:26;-1.9;77.0
45313;SHT31;68267;51.540;5.854;2023-02-28T23:16:46;-2.1;76.7
45313;SHT31;68267;51.540;5.854;2023-02-28T23:30:05;-2.1;77.5
45313;SHT31;68267;51.540;5.854;2023-02-28T23:43:25;-2.0;77.8
45313;SHT31;68267;51.540;5.854;2023-02-28T23:56:45;-2.0;77.8
